الصفحة الرئيسية
METAR-TAF:

METAR-TAF

مطار :

Alice Springs, أستراليا

دائرة عرض: 23-48S, خط طول: 133-53E, ارتفاع: 545 متر

مراقبة الطقس الحالي

تاريخ ووقت الإصدار 31 دقيقة قبل الساعة 15:30UTC
ريح 4 عقدة من الشمال
درجة الحرارة 9°درجة مئوية
الرطوبة 53%
ضغط 1026 hPa
الرؤية 10 كم أو أكثر

METAR: YBAS 221530Z AUTO 36004KT 9999 // NCD 09/00 Q1026 RF00.0/000.0

زمن: 01:31 (16:01 UTC)

توقعات

تاريخ ووقت الإصدار 4ساعات و 33 دقيقة قبل الساعة 11:28UTC
التوقعات صالحة من22 الساعة 12 UTC إلى 23 الساعة 12 UTC
ريح 8 عقدة من الشرق/الجنوب الشرقي
الرؤية 10 كم أو أكثر
الغيوم لا تقل 1500 م ولا وجود لمزنة ركامية السحاب الأسود
من 23 الساعة 0000 UTC
ريح 14 عقدة من الشرق/الجنوب الشرقي
الرؤية 10 كم أو أكثر
الغيوم لا تقل 1500 م ولا وجود لمزنة ركامية السحاب الأسود
من 23 الساعة 0900 UTC
ريح 8 عقدة من الجنوب الشرقي
الرؤية 10 كم أو أكثر
الغيوم لا تقل 1500 م ولا وجود لمزنة ركامية السحاب الأسود

TAF: YBAS 221128Z 2212/2312 11008KT CAVOK FM230000 11014KT CAVOK FM230900 13008KT CAVOK

أرصاد الطقس والتوقعات من أكثر من 4000 مطار (تقارير الطقس للمطار METAR والتنبؤ بالطقس بالمطارTAF).

المحطات المتاحة هي النقط الصفراء والحمراء على الخريطة.

حرك المؤشر فوق النقطة لمعرفة اسم المحطة.

ثم انقر لمعرفة أرصاد وتوقعات الطقس.

لتغيير الخارطة: اضغط على الأزرار الخضراء مع رمز الصليب الأسود للتكبير. على الزر الأخضر مع شرطة للتصغير، أو على الأسهم الخضراء للخرائط المجاورة.


METAR-TAF: